createdAt,value
2023-04-21T00:00:54.166Z,100.00
2023-04-21T00:03:22.784Z,100.00
2023-04-21T00:05:51.078Z,100.00
2023-04-21T00:08:19.140Z,100.00
2023-04-21T00:10:47.091Z,100.00
2023-04-21T00:13:14.432Z,100.00
2023-04-21T00:15:41.937Z,100.00
2023-04-21T00:18:10.167Z,100.00
2023-04-21T00:20:37.440Z,100.00
2023-04-21T00:23:04.356Z,100.00
2023-04-21T00:25:31.190Z,100.00
2023-04-21T00:27:58.180Z,100.00
2023-04-21T00:30:25.244Z,100.00
2023-04-21T00:32:52.083Z,100.00
2023-04-21T00:35:19.038Z,100.00
2023-04-21T00:37:46.330Z,100.00
2023-04-21T00:40:13.886Z,100.00
2023-04-21T00:42:40.875Z,100.00
2023-04-21T00:45:08.508Z,100.00
2023-04-21T00:47:35.456Z,100.00
2023-04-21T00:50:03.440Z,100.00
2023-04-21T00:52:30.596Z,100.00
2023-04-21T00:54:57.623Z,100.00
2023-04-21T00:57:24.359Z,100.00
2023-04-21T00:59:52.216Z,100.00
2023-04-21T01:02:19.133Z,100.00
2023-04-21T01:04:46.408Z,100.00
2023-04-21T01:07:13.167Z,100.00
2023-04-21T01:09:40.372Z,100.00
2023-04-21T01:12:11.722Z,100.00
2023-04-21T01:14:41.267Z,100.00
2023-04-21T01:17:08.962Z,100.00
2023-04-21T01:19:41.501Z,100.00
2023-04-21T01:22:13.000Z,100.00
2023-04-21T01:24:42.728Z,100.00
2023-04-21T01:27:11.843Z,100.00
2023-04-21T01:29:40.838Z,100.00
2023-04-21T01:32:10.563Z,100.00
2023-04-21T01:34:38.228Z,100.00
2023-04-21T01:37:08.126Z,100.00
2023-04-21T01:39:35.272Z,100.00
2023-04-21T01:42:02.058Z,100.00
2023-04-21T01:44:28.828Z,100.00
2023-04-21T01:46:56.004Z,100.00
2023-04-21T01:49:22.767Z,100.00
2023-04-21T01:51:49.799Z,100.00
2023-04-21T01:54:16.582Z,100.00
2023-04-21T01:56:43.406Z,100.00
2023-04-21T01:59:10.733Z,100.00
2023-04-21T02:01:37.570Z,100.00
2023-04-21T02:04:06.723Z,100.00
2023-04-21T02:06:33.885Z,100.00
2023-04-21T02:09:00.627Z,100.00
2023-04-21T02:11:27.334Z,100.00
2023-04-21T02:13:55.160Z,100.00
2023-04-21T02:16:26.450Z,100.00
2023-04-21T02:18:57.247Z,100.00
2023-04-21T02:21:25.193Z,100.00
2023-04-21T02:23:52.474Z,100.00
2023-04-21T02:26:19.980Z,100.00
2023-04-21T02:28:47.488Z,100.00
2023-04-21T02:31:14.658Z,100.00
2023-04-21T02:33:41.813Z,100.00
2023-04-21T02:36:09.052Z,100.00
2023-04-21T02:38:35.835Z,100.00
2023-04-21T02:41:02.779Z,100.00
2023-04-21T02:43:29.980Z,100.00
2023-04-21T02:45:57.033Z,100.00
2023-04-21T02:48:23.963Z,100.00
2023-04-21T02:50:51.167Z,100.00
2023-04-21T02:53:18.177Z,100.00
2023-04-21T02:55:44.886Z,100.00
2023-04-21T02:58:11.690Z,100.00
2023-04-21T03:00:38.461Z,100.00
2023-04-21T03:03:05.615Z,100.00
2023-04-21T03:05:32.482Z,100.00
2023-04-21T03:07:59.273Z,100.00
2023-04-21T03:10:26.100Z,100.00
2023-04-21T03:12:53.838Z,100.00
2023-04-21T03:15:21.296Z,100.00
2023-04-21T03:17:48.367Z,100.00
2023-04-21T03:20:16.417Z,100.00
2023-04-21T03:22:43.091Z,100.00
2023-04-21T03:25:09.906Z,100.00
2023-04-21T03:27:36.586Z,100.00
2023-04-21T03:30:03.482Z,100.00
2023-04-21T03:32:30.345Z,100.00
2023-04-21T03:34:57.227Z,100.00
2023-04-21T03:37:24.137Z,100.00
2023-04-21T03:39:50.903Z,100.00
2023-04-21T03:42:17.713Z,100.00
2023-04-21T03:44:50.442Z,100.00
2023-04-21T03:47:18.191Z,100.00
2023-04-21T03:49:44.994Z,100.00
2023-04-21T03:52:12.556Z,100.00
2023-04-21T03:54:39.631Z,100.00
2023-04-21T03:57:06.364Z,100.00
2023-04-21T03:59:33.378Z,100.00
2023-04-21T04:02:00.247Z,100.00
2023-04-21T04:04:27.546Z,100.00
2023-04-21T04:06:54.387Z,100.00
2023-04-21T04:09:21.312Z,100.00
2023-04-21T04:11:48.165Z,100.00
2023-04-21T04:14:15.131Z,100.00
2023-04-21T04:16:41.972Z,100.00
2023-04-21T04:19:09.449Z,100.00
2023-04-21T04:21:36.299Z,100.00
2023-04-21T04:24:03.537Z,100.00
2023-04-21T04:26:30.347Z,100.00
2023-04-21T04:28:57.363Z,100.00
2023-04-21T04:31:25.864Z,100.00
2023-04-21T04:33:54.884Z,100.00
2023-04-21T04:36:23.292Z,100.00
2023-04-21T04:38:50.136Z,100.00
2023-04-21T04:41:17.142Z,100.00
2023-04-21T04:43:44.289Z,100.00
2023-04-21T04:46:13.346Z,100.00
2023-04-21T04:48:40.786Z,100.00
2023-04-21T04:51:07.826Z,100.00
2023-04-21T04:53:35.611Z,100.00
2023-04-21T04:56:02.512Z,100.00
2023-04-21T04:58:29.237Z,100.00
2023-04-21T05:00:56.235Z,100.00
2023-04-21T05:03:23.093Z,100.00
2023-04-21T05:05:49.898Z,100.00
2023-04-21T05:08:18.067Z,100.00
2023-04-21T05:10:45.820Z,100.00
2023-04-21T05:13:12.823Z,100.00
2023-04-21T05:15:39.778Z,100.00
2023-04-21T05:18:07.945Z,100.00
2023-04-21T05:20:34.718Z,100.00
2023-04-21T05:23:01.417Z,100.00
2023-04-21T05:25:28.736Z,100.00
2023-04-21T05:27:55.988Z,100.00
2023-04-21T05:30:23.105Z,100.00
2023-04-21T05:32:50.657Z,100.00
2023-04-21T05:35:17.549Z,100.00
2023-04-21T05:37:44.244Z,100.00
2023-04-21T05:40:11.296Z,100.00
2023-04-21T05:42:38.576Z,100.00
2023-04-21T05:45:06.279Z,100.00
2023-04-21T05:47:33.123Z,100.00
2023-04-21T05:50:00.256Z,100.00
2023-04-21T05:52:27.068Z,100.00
2023-04-21T05:54:53.839Z,100.00
2023-04-21T05:57:21.188Z,100.00
2023-04-21T05:59:48.172Z,100.00
2023-04-21T06:02:15.288Z,100.00
2023-04-21T06:04:42.312Z,100.00
2023-04-21T06:07:10.743Z,100.00
2023-04-21T06:09:38.887Z,100.00
2023-04-21T06:12:06.317Z,100.00
2023-04-21T06:14:33.464Z,100.00
2023-04-21T06:17:00.302Z,100.00
2023-04-21T06:19:27.233Z,100.00
2023-04-21T06:21:54.276Z,100.00
2023-04-21T06:24:25.868Z,100.00
2023-04-21T06:26:53.642Z,100.00
2023-04-21T06:29:21.443Z,100.00
2023-04-21T06:31:48.388Z,100.00
2023-04-21T06:34:15.794Z,100.00
2023-04-21T06:36:43.025Z,100.00
2023-04-21T06:39:09.903Z,100.00
2023-04-21T06:41:36.799Z,100.00
2023-04-21T06:44:03.595Z,100.00
2023-04-21T06:46:30.489Z,99.15
2023-04-21T06:48:57.235Z,99.23
2023-04-21T06:51:24.823Z,99.07
2023-04-21T06:53:51.939Z,98.69
2023-04-21T06:56:18.718Z,100.00
2023-04-21T06:58:47.207Z,99.79
2023-04-21T07:01:14.036Z,98.66
2023-04-21T07:03:41.622Z,98.71
2023-04-21T07:06:08.778Z,98.09
2023-04-21T07:08:35.815Z,97.03
2023-04-21T07:11:02.862Z,95.97
2023-04-21T07:13:30.021Z,96.96
2023-04-21T07:15:56.956Z,96.68
2023-04-21T07:18:23.796Z,95.74
2023-04-21T07:20:50.984Z,96.79
2023-04-21T07:23:18.071Z,97.11
2023-04-21T07:25:44.904Z,96.04
2023-04-21T07:28:11.764Z,96.64
2023-04-21T07:30:38.663Z,95.42
2023-04-21T07:33:05.763Z,95.10
2023-04-21T07:35:32.626Z,94.30
2023-04-21T07:37:59.481Z,93.90
2023-04-21T07:40:26.671Z,93.83
2023-04-21T07:42:53.410Z,93.60
2023-04-21T07:45:20.255Z,94.18
2023-04-21T07:47:47.281Z,92.80
2023-04-21T07:50:14.269Z,92.79
2023-04-21T07:52:41.262Z,91.15
2023-04-21T07:55:08.269Z,92.20
2023-04-21T07:57:39.116Z,91.73
2023-04-21T08:00:07.215Z,92.12
2023-04-21T08:02:34.151Z,90.88
2023-04-21T08:05:01.011Z,89.38
2023-04-21T08:07:28.005Z,88.45
2023-04-21T08:09:55.053Z,88.13
2023-04-21T08:12:21.734Z,89.47
2023-04-21T08:14:48.837Z,90.68
2023-04-21T08:17:16.362Z,90.36
2023-04-21T08:19:43.232Z,91.50
2023-04-21T08:22:10.111Z,91.53
2023-04-21T08:24:37.020Z,91.33
2023-04-21T08:27:03.975Z,91.31
2023-04-21T08:29:30.995Z,89.95
2023-04-21T08:31:57.804Z,89.41
2023-04-21T08:34:27.209Z,88.86
2023-04-21T08:36:55.471Z,87.99
2023-04-21T08:39:22.424Z,87.58
2023-04-21T08:41:50.021Z,88.70
2023-04-21T08:44:16.852Z,87.23
2023-04-21T08:46:45.802Z,85.96
2023-04-21T08:49:13.505Z,88.15
2023-04-21T08:51:40.530Z,86.89
2023-04-21T08:54:07.362Z,87.58
2023-04-21T08:56:34.273Z,87.32
2023-04-21T08:59:01.061Z,87.25
2023-04-21T09:01:28.285Z,86.52
2023-04-21T09:03:55.250Z,85.57
2023-04-21T09:06:22.566Z,85.42
2023-04-21T09:08:56.455Z,85.77
2023-04-21T09:11:23.700Z,84.65
2023-04-21T09:13:50.771Z,84.40
2023-04-21T09:16:22.237Z,84.65
2023-04-21T09:18:50.228Z,83.46
2023-04-21T09:21:19.019Z,83.17
2023-04-21T09:23:51.483Z,82.29
2023-04-21T09:26:21.969Z,81.25
2023-04-21T09:28:50.089Z,83.79
2023-04-21T09:31:22.071Z,82.13
2023-04-21T09:34:00.135Z,81.77
2023-04-21T09:36:29.731Z,81.59
2023-04-21T09:41:33.764Z,80.56
2023-04-21T09:44:02.150Z,80.32
2023-04-21T09:46:29.909Z,80.21
2023-04-21T09:48:57.421Z,80.15
2023-04-21T09:51:42.713Z,78.13
2023-04-21T09:56:58.042Z,77.14
2023-04-21T09:59:38.282Z,79.72
2023-04-21T10:02:07.911Z,77.83
2023-04-21T10:04:37.005Z,78.63
2023-04-21T10:07:04.120Z,77.79
2023-04-21T10:09:39.773Z,77.89
2023-04-21T10:12:09.002Z,78.14
2023-04-21T10:14:36.847Z,78.27
2023-04-21T10:17:06.213Z,77.26
2023-04-21T10:19:39.960Z,77.13
2023-04-21T10:22:09.248Z,75.23
2023-04-21T10:24:40.224Z,76.40
2023-04-21T10:27:12.005Z,76.75
2023-04-21T10:29:54.766Z,75.44
2023-04-21T10:32:43.265Z,75.24
2023-04-21T10:35:22.089Z,74.55
2023-04-21T10:37:50.716Z,75.81
2023-04-21T10:40:44.130Z,71.11
2023-04-21T10:43:44.379Z,70.96
2023-04-21T10:46:35.562Z,71.93
2023-04-21T10:49:07.569Z,71.70
2023-04-21T10:51:56.321Z,68.22
2023-04-21T10:54:23.253Z,68.34
2023-04-21T10:56:52.705Z,67.04
2023-04-21T10:59:19.843Z,65.34
2023-04-21T11:01:46.832Z,66.45
2023-04-21T11:04:18.192Z,66.86
2023-04-21T11:07:08.519Z,65.81
2023-04-21T11:09:36.263Z,64.91
2023-04-21T11:12:11.739Z,66.58
2023-04-21T11:14:42.126Z,65.87
2023-04-21T11:17:13.856Z,64.07
2023-04-21T11:19:40.865Z,63.20
2023-04-21T11:22:08.447Z,61.31
2023-04-21T11:24:35.322Z,60.18
2023-04-21T11:27:02.719Z,60.45
2023-04-21T11:29:30.129Z,60.40
2023-04-21T11:31:57.287Z,60.36
2023-04-21T11:34:25.861Z,61.09
2023-04-21T11:36:53.297Z,60.66
2023-04-21T11:39:22.316Z,59.60
2023-04-21T11:41:51.001Z,58.83
2023-04-21T11:44:35.862Z,58.68
2023-04-21T11:47:20.390Z,58.14
2023-04-21T11:49:48.223Z,57.66
2023-04-21T11:52:25.996Z,57.65
2023-04-21T11:55:13.243Z,57.63
2023-04-21T11:57:41.634Z,58.47
2023-04-21T12:00:13.673Z,58.15
2023-04-21T12:02:40.807Z,57.50
2023-04-21T12:05:12.923Z,58.47
2023-04-21T12:07:43.285Z,57.90
2023-04-21T12:10:12.347Z,59.73
2023-04-21T12:12:40.081Z,62.63
2023-04-21T12:15:08.300Z,62.49
2023-04-21T12:17:40.642Z,63.69
2023-04-21T12:20:08.998Z,63.90
2023-04-21T12:22:37.637Z,64.32
2023-04-21T12:25:06.434Z,61.26
2023-04-21T12:27:33.336Z,61.81
2023-04-21T12:30:00.183Z,60.05
2023-04-21T12:32:27.185Z,60.50
2023-04-21T12:34:53.902Z,59.86
2023-04-21T12:37:21.024Z,57.60
2023-04-21T12:39:47.913Z,58.96
2023-04-21T12:42:14.808Z,58.10
2023-04-21T12:44:41.867Z,58.61
2023-04-21T12:47:08.777Z,58.86
2023-04-21T12:49:35.816Z,59.10
2023-04-21T12:52:05.810Z,58.94
2023-04-21T12:54:32.608Z,58.83
2023-04-21T12:56:59.623Z,59.96
2023-04-21T12:59:26.574Z,58.60
2023-04-21T13:01:54.046Z,59.26
2023-04-21T13:04:22.305Z,58.70
2023-04-21T13:06:49.436Z,59.35
2023-04-21T13:09:17.306Z,57.49
2023-04-21T13:11:44.105Z,58.92
2023-04-21T13:14:11.208Z,59.13
2023-04-21T13:16:38.253Z,58.71
2023-04-21T13:19:05.651Z,58.06
2023-04-21T13:21:33.037Z,57.98
2023-04-21T13:23:59.951Z,57.98
2023-04-21T13:26:27.820Z,57.29
2023-04-21T13:28:55.085Z,54.02
2023-04-21T13:31:22.051Z,54.24
2023-04-21T13:33:49.757Z,54.57
2023-04-21T13:36:17.459Z,55.35
2023-04-21T13:38:44.521Z,53.56
2023-04-21T13:41:11.827Z,54.25
2023-04-21T13:43:38.852Z,55.17
2023-04-21T13:46:06.179Z,53.23
2023-04-21T13:48:32.890Z,54.30
2023-04-21T13:50:59.771Z,53.31
2023-04-21T13:53:27.171Z,54.00
2023-04-21T13:55:57.818Z,53.64
2023-04-21T13:58:24.612Z,53.06
2023-04-21T14:00:51.678Z,52.25
2023-04-21T14:03:19.062Z,52.04
2023-04-21T14:05:46.245Z,52.60
2023-04-21T14:08:13.034Z,52.89
2023-04-21T14:10:39.910Z,51.61
2023-04-21T14:13:07.278Z,50.45
2023-04-21T14:15:34.820Z,49.20
2023-04-21T14:18:01.666Z,48.47
2023-04-21T14:20:28.735Z,47.51
2023-04-21T14:22:55.593Z,47.56
2023-04-21T14:25:22.825Z,49.02
2023-04-21T14:27:49.667Z,46.94
2023-04-21T14:30:16.839Z,47.59
2023-04-21T14:32:45.966Z,47.32
2023-04-21T14:35:13.214Z,47.46
2023-04-21T14:37:41.631Z,46.13
2023-04-21T14:40:10.234Z,47.91
2023-04-21T14:42:37.023Z,46.73
2023-04-21T14:45:04.386Z,46.85
2023-04-21T14:47:31.431Z,46.12
2023-04-21T14:49:58.607Z,47.27
2023-04-21T14:52:27.208Z,46.71
2023-04-21T14:54:54.131Z,47.52
2023-04-21T14:57:22.303Z,47.46
2023-04-21T14:59:53.555Z,46.68
2023-04-21T15:02:21.805Z,48.25
2023-04-21T15:04:49.541Z,48.16
2023-04-21T15:07:19.900Z,48.42
2023-04-21T15:09:51.645Z,48.66
2023-04-21T15:12:18.734Z,49.25
2023-04-21T15:14:45.530Z,48.05
2023-04-21T15:17:12.721Z,48.78
2023-04-21T15:19:39.477Z,48.73
2023-04-21T15:22:06.366Z,47.77
2023-04-21T15:24:33.475Z,47.40
2023-04-21T15:27:00.308Z,47.45
2023-04-21T15:29:30.466Z,46.74
2023-04-21T15:31:57.780Z,48.03
2023-04-21T15:34:25.330Z,48.49
2023-04-21T15:36:52.398Z,48.40
2023-04-21T15:39:19.300Z,47.31
2023-04-21T15:41:46.514Z,48.69
2023-04-21T15:44:13.470Z,48.30
2023-04-21T15:46:40.652Z,48.78
2023-04-21T15:49:07.675Z,47.56
2023-04-21T15:51:36.629Z,48.39
2023-04-21T15:54:04.908Z,48.84
2023-04-21T15:56:32.024Z,49.00
2023-04-21T15:58:59.142Z,49.92
2023-04-21T16:01:26.124Z,49.15
2023-04-21T16:03:53.733Z,49.03
2023-04-21T16:06:21.872Z,49.42
2023-04-21T16:08:48.724Z,49.45
2023-04-21T16:11:16.158Z,49.32
2023-04-21T16:13:43.122Z,47.96
2023-04-21T16:16:10.578Z,49.61
2023-04-21T16:18:37.650Z,49.94
2023-04-21T16:21:04.801Z,50.28
2023-04-21T16:23:32.414Z,48.92
2023-04-21T16:26:00.349Z,49.64
2023-04-21T16:28:30.246Z,49.11
2023-04-21T16:30:57.167Z,48.36
2023-04-21T16:33:24.120Z,49.35
2023-04-21T16:35:52.523Z,49.29
2023-04-21T16:38:20.098Z,48.27
2023-04-21T16:40:47.272Z,48.18
2023-04-21T16:43:14.212Z,47.96
2023-04-21T16:45:41.226Z,48.34
2023-04-21T16:48:08.648Z,48.33
2023-04-21T16:50:36.112Z,48.79
2023-04-21T16:53:03.101Z,48.89
2023-04-21T16:55:31.706Z,48.56
2023-04-21T16:57:59.613Z,49.03
2023-04-21T17:00:27.507Z,48.68
2023-04-21T17:02:55.279Z,48.30
2023-04-21T17:05:23.532Z,49.42
2023-04-21T17:07:51.345Z,48.61
2023-04-21T17:10:18.803Z,48.89
2023-04-21T17:12:46.545Z,49.15
2023-04-21T17:15:13.585Z,48.24
2023-04-21T17:17:43.343Z,48.85
2023-04-21T17:20:12.022Z,49.75
2023-04-21T17:22:40.152Z,49.58
2023-04-21T17:25:08.415Z,49.72
2023-04-21T17:27:36.750Z,50.03
2023-04-21T17:30:08.085Z,50.51
2023-04-21T17:32:35.968Z,50.98
2023-04-21T17:35:05.124Z,51.18
2023-04-21T17:37:32.056Z,51.67
2023-04-21T17:40:02.444Z,52.06
2023-04-21T17:42:30.082Z,52.63
2023-04-21T17:44:56.860Z,53.50
2023-04-21T17:47:23.598Z,53.48
2023-04-21T17:49:50.893Z,54.00
2023-04-21T17:52:18.533Z,54.36
2023-04-21T17:54:46.566Z,55.15
2023-04-21T17:57:13.498Z,56.10
2023-04-21T17:59:40.687Z,56.63
2023-04-21T18:02:07.879Z,56.69
2023-04-21T18:04:35.246Z,56.44
2023-04-21T18:07:03.118Z,56.00
2023-04-21T18:09:32.838Z,56.57
2023-04-21T18:12:00.285Z,56.54
2023-04-21T18:14:27.548Z,57.44
2023-04-21T18:16:54.812Z,57.10
2023-04-21T18:19:21.689Z,57.90
2023-04-21T18:21:48.384Z,58.52
2023-04-21T18:24:15.301Z,58.34
2023-04-21T18:26:42.348Z,58.96
2023-04-21T18:29:09.231Z,58.50
2023-04-21T18:31:36.468Z,58.99
2023-04-21T18:34:03.362Z,59.35
2023-04-21T18:36:32.916Z,59.50
2023-04-21T18:39:00.630Z,59.75
2023-04-21T18:41:27.842Z,60.40
2023-04-21T18:43:55.008Z,59.87
2023-04-21T18:46:22.435Z,60.47
2023-04-21T18:48:49.262Z,60.43
2023-04-21T18:51:16.087Z,60.83
2023-04-21T18:53:43.564Z,61.65
2023-04-21T18:56:10.359Z,62.49
2023-04-21T18:58:37.467Z,62.88
2023-04-21T19:01:04.228Z,63.61
2023-04-21T19:03:31.463Z,63.71
2023-04-21T19:05:58.996Z,64.37
2023-04-21T19:08:40.706Z,64.42
2023-04-21T19:11:08.109Z,64.63
2023-04-21T19:13:34.823Z,65.04
2023-04-21T19:16:01.943Z,65.09
2023-04-21T19:18:29.093Z,66.08
2023-04-21T19:20:56.285Z,65.60
2023-04-21T19:23:23.588Z,64.23
2023-04-21T19:25:54.840Z,65.09
2023-04-21T19:28:21.937Z,64.67
2023-04-21T19:30:49.181Z,64.52
2023-04-21T19:33:16.664Z,64.15
2023-04-21T19:35:43.608Z,64.33
2023-04-21T19:38:10.646Z,64.13
2023-04-21T19:40:37.513Z,64.63
2023-04-21T19:43:05.212Z,64.66
2023-04-21T19:45:32.021Z,65.15
2023-04-21T19:47:59.019Z,65.77
2023-04-21T19:50:25.863Z,66.61
2023-04-21T19:52:52.711Z,66.32
2023-04-21T19:55:19.731Z,66.63
2023-04-21T19:57:46.568Z,66.37
2023-04-21T20:00:14.472Z,66.65
2023-04-21T20:02:41.533Z,67.02
2023-04-21T20:05:09.689Z,67.37
2023-04-21T20:07:37.500Z,67.70
2023-04-21T20:10:07.989Z,68.15
2023-04-21T20:12:34.812Z,68.44
2023-04-21T20:15:02.132Z,68.14
2023-04-21T20:17:29.601Z,68.49
2023-04-21T20:19:56.639Z,68.88
2023-04-21T20:22:23.829Z,69.35
2023-04-21T20:24:52.267Z,69.88
2023-04-21T20:27:19.180Z,69.21
2023-04-21T20:29:46.976Z,70.05
2023-04-21T20:32:14.202Z,71.08
2023-04-21T20:34:41.252Z,72.39
2023-04-21T20:37:08.320Z,71.27
2023-04-21T20:39:35.035Z,72.31
2023-04-21T20:42:12.710Z,71.81
2023-04-21T20:44:41.564Z,71.62
2023-04-21T20:47:08.728Z,72.21
2023-04-21T20:49:35.987Z,72.01
2023-04-21T20:52:03.060Z,72.87
2023-04-21T20:54:29.840Z,72.49
2023-04-21T20:56:56.572Z,73.08
2023-04-21T20:59:23.351Z,73.57
2023-04-21T21:01:50.141Z,74.36
2023-04-21T21:04:17.345Z,73.62
2023-04-21T21:06:44.426Z,74.45
2023-04-21T21:09:11.955Z,75.70
2023-04-21T21:11:38.807Z,76.00
2023-04-21T21:14:05.850Z,76.01
2023-04-21T21:16:32.862Z,76.41
2023-04-21T21:18:59.798Z,76.99
2023-04-21T21:21:26.787Z,77.67
2023-04-21T21:23:53.499Z,77.78
2023-04-21T21:26:20.824Z,77.21
2023-04-21T21:28:47.761Z,77.80
2023-04-21T21:31:14.863Z,78.63
2023-04-21T21:33:41.779Z,81.34
2023-04-21T21:36:08.647Z,82.95
2023-04-21T21:38:35.457Z,84.45
2023-04-21T21:41:02.217Z,86.17
2023-04-21T21:43:29.071Z,86.92
2023-04-21T21:45:56.019Z,88.05
2023-04-21T21:48:22.860Z,88.32
2023-04-21T21:50:49.677Z,91.30
2023-04-21T21:53:16.438Z,91.79
2023-04-21T21:55:43.253Z,93.43
2023-04-21T21:58:10.262Z,95.75
2023-04-21T22:00:39.335Z,97.38
2023-04-21T22:03:06.661Z,98.98
2023-04-21T22:05:34.418Z,97.78
2023-04-21T22:08:01.197Z,98.05
2023-04-21T22:10:28.211Z,97.64
2023-04-21T22:12:54.852Z,99.57
2023-04-21T22:15:21.745Z,100.00
2023-04-21T22:17:48.584Z,100.00
2023-04-21T22:20:15.492Z,99.61
2023-04-21T22:22:42.263Z,99.11
2023-04-21T22:25:11.118Z,97.73
2023-04-21T22:27:37.863Z,97.25
2023-04-21T22:30:05.647Z,98.23
2023-04-21T22:32:32.662Z,96.15
2023-04-21T22:35:00.021Z,95.03
2023-04-21T22:37:27.657Z,97.13
2023-04-21T22:39:57.986Z,97.83
2023-04-21T22:42:24.727Z,98.14
2023-04-21T22:44:51.419Z,97.05
2023-04-21T22:47:18.146Z,96.92
2023-04-21T22:49:44.976Z,95.97
2023-04-21T22:52:11.886Z,93.99
2023-04-21T22:54:38.713Z,94.01
2023-04-21T22:57:06.127Z,92.91
2023-04-21T22:59:33.220Z,93.12
2023-04-21T23:02:00.328Z,95.16
2023-04-21T23:04:27.117Z,95.76
2023-04-21T23:06:54.084Z,97.09
2023-04-21T23:09:20.980Z,97.55
2023-04-21T23:11:47.680Z,96.80
2023-04-21T23:14:14.435Z,97.71
2023-04-21T23:16:41.304Z,97.67
2023-04-21T23:19:08.075Z,97.85
2023-04-21T23:21:35.082Z,99.17
2023-04-21T23:24:01.948Z,100.00
2023-04-21T23:26:28.640Z,99.92
2023-04-21T23:28:55.333Z,100.00
2023-04-21T23:31:22.279Z,100.00
2023-04-21T23:33:49.062Z,99.75
2023-04-21T23:36:15.907Z,100.00
2023-04-21T23:38:42.586Z,100.00
2023-04-21T23:41:09.334Z,100.00
2023-04-21T23:43:37.560Z,99.96
2023-04-21T23:46:04.540Z,99.27
2023-04-21T23:48:31.318Z,100.00
2023-04-21T23:50:58.068Z,100.00
2023-04-21T23:53:25.197Z,100.00
2023-04-21T23:55:52.127Z,100.00
2023-04-21T23:58:18.790Z,100.00
